createdAt,value
2016-07-08T06:05:01.826Z,1010.34
2016-07-08T06:06:01.816Z,1010.35
2016-07-08T06:07:01.804Z,1010.27
2016-07-08T06:08:01.794Z,1010.26
2016-07-08T06:09:01.784Z,1010.25
2016-07-08T06:10:01.777Z,1010.25
2016-07-08T06:11:01.768Z,1010.28
2016-07-08T06:12:01.761Z,1010.28
2016-07-08T06:13:01.753Z,1010.29
2016-07-08T06:14:01.746Z,1010.32
2016-07-08T06:15:01.739Z,1010.33
2016-07-08T06:16:01.737Z,1010.3
2016-07-08T06:17:01.730Z,1010.32
2016-07-08T06:18:01.725Z,1010.32
2016-07-08T06:19:01.720Z,1010.32
2016-07-08T06:20:01.717Z,1010.3
2016-07-08T06:21:01.711Z,1010.31
2016-07-08T06:22:01.711Z,1010.3
2016-07-08T06:23:01.706Z,1010.3
2016-07-08T06:24:01.707Z,1010.27
2016-07-08T06:25:01.700Z,1010.26
2016-07-08T06:26:01.696Z,1010.24
2016-07-08T06:27:01.690Z,1010.24
2016-07-08T06:28:01.688Z,1010.22
2016-07-08T06:29:01.688Z,1010.22
2016-07-08T06:30:01.686Z,1010.24
2016-07-08T06:31:01.684Z,1010.22
2016-07-08T06:32:01.677Z,1010.23
2016-07-08T06:33:01.677Z,1010.22
2016-07-08T06:34:01.677Z,1010.16
2016-07-08T06:35:01.672Z,1010.22
2016-07-08T06:36:01.873Z,1010.19
2016-07-08T06:37:01.670Z,1010.14
2016-07-08T06:38:01.669Z,1010.15
2016-07-08T06:39:01.665Z,1010.19
2016-07-08T06:40:01.664Z,1010.2
2016-07-08T06:41:01.663Z,1010.2
2016-07-08T06:42:01.663Z,1010.2
2016-07-08T06:43:01.661Z,1010.2
2016-07-08T06:44:01.657Z,1010.21
2016-07-08T06:45:01.656Z,1010.21
2016-07-08T06:46:01.659Z,1010.23
2016-07-08T06:47:01.656Z,1010.21
2016-07-08T06:48:01.653Z,1010.2
2016-07-08T06:49:01.652Z,1010.27
2016-07-08T06:50:01.654Z,1010.27
2016-07-08T06:51:01.651Z,1010.24
2016-07-08T06:52:01.652Z,1010.26
2016-07-08T06:53:01.651Z,1010.26
2016-07-08T06:54:01.647Z,1010.27
2016-07-08T06:55:01.655Z,1010.22
2016-07-08T06:56:01.645Z,1010.16
2016-07-08T06:57:01.647Z,1010.17
2016-07-08T06:58:01.649Z,1010.17
2016-07-08T06:59:01.657Z,1010.15
2016-07-08T07:00:01.716Z,1010.16
2016-07-08T07:01:01.664Z,1010.18
2016-07-08T07:02:01.647Z,1010.14
2016-07-08T07:03:01.649Z,1010.14
2016-07-08T07:04:01.646Z,1010.09
2016-07-08T07:05:01.649Z,1010.07
2016-07-08T07:06:01.647Z,1010.05
2016-07-08T07:07:01.650Z,1010.04
2016-07-08T07:08:01.657Z,1010.05
2016-07-08T07:09:01.669Z,1010.06
2016-07-08T07:10:01.815Z,1010.03
2016-07-08T07:11:01.649Z,1010.07
2016-07-08T07:12:02.390Z,1010.07
2016-07-08T07:13:01.982Z,1010.05
2016-07-08T07:14:01.649Z,1010.05
2016-07-08T07:15:01.650Z,1010.06
2016-07-08T07:16:01.702Z,1010
2016-07-08T07:17:01.650Z,1009.98
2016-07-08T07:18:01.651Z,1010.04
2016-07-08T07:19:01.653Z,1010.05
2016-07-08T07:20:01.653Z,1010.11
2016-07-08T07:21:01.658Z,1010.04
2016-07-08T07:22:01.655Z,1010.09
2016-07-08T07:23:01.710Z,1010.09
2016-07-08T07:24:01.657Z,1010.06
2016-07-08T07:25:01.655Z,1010.04
2016-07-08T07:26:01.659Z,1009.99
2016-07-08T07:27:01.662Z,1010.02
2016-07-08T07:28:01.664Z,1009.99
2016-07-08T07:29:01.750Z,1009.96
2016-07-08T07:30:01.662Z,1009.95
2016-07-08T07:31:01.660Z,1009.92
2016-07-08T07:32:01.662Z,1009.91
2016-07-08T07:33:01.662Z,1009.91
2016-07-08T07:34:01.664Z,1009.9
2016-07-08T07:35:01.671Z,1009.91
2016-07-08T07:36:01.677Z,1009.91
2016-07-08T07:37:01.670Z,1009.93
2016-07-08T07:38:01.681Z,1009.96
2016-07-08T07:39:01.670Z,1009.96
2016-07-08T07:40:01.668Z,1009.95
2016-07-08T07:41:01.674Z,1009.9
2016-07-08T07:42:01.675Z,1009.93
2016-07-08T07:43:01.677Z,1009.93
2016-07-08T07:44:01.676Z,1009.89
2016-07-08T07:45:01.680Z,1009.92
2016-07-08T07:46:01.748Z,1009.91
2016-07-08T07:47:01.680Z,1009.9
2016-07-08T07:48:01.688Z,1009.88
2016-07-08T07:49:01.683Z,1009.86
2016-07-08T07:50:01.685Z,1009.84
2016-07-08T07:51:01.696Z,1009.8
2016-07-08T07:52:01.688Z,1009.81
2016-07-08T07:53:01.689Z,1009.78
2016-07-08T07:54:01.688Z,1009.83
2016-07-08T07:55:01.691Z,1009.81
2016-07-08T07:56:01.893Z,1009.81
2016-07-08T07:57:01.697Z,1009.78
2016-07-08T07:58:01.698Z,1009.76
2016-07-08T07:59:01.699Z,1009.73
2016-07-08T08:00:01.701Z,1009.73
2016-07-08T08:01:01.700Z,1009.71
2016-07-08T08:02:01.971Z,1009.71
2016-07-08T08:03:01.706Z,1009.75
2016-07-08T08:04:01.707Z,1009.78
2016-07-08T08:05:01.704Z,1009.79
2016-07-08T08:06:02.168Z,1009.79
2016-07-08T08:07:01.712Z,1009.8
2016-07-08T08:08:01.712Z,1009.83
2016-07-08T08:09:01.713Z,1009.79
2016-07-08T08:10:01.718Z,1009.78
2016-07-08T08:11:01.718Z,1009.74
2016-07-08T08:12:01.719Z,1009.73
2016-07-08T08:13:01.723Z,1009.71
2016-07-08T08:14:01.724Z,1009.67
2016-07-08T08:15:01.722Z,1009.65
2016-07-08T08:16:01.727Z,1009.68
2016-07-08T08:17:01.729Z,1009.63
2016-07-08T08:18:01.731Z,1009.59
2016-07-08T08:19:01.736Z,1009.57
2016-07-08T08:20:01.733Z,1009.57
2016-07-08T08:21:01.738Z,1009.55
2016-07-08T08:22:01.737Z,1009.56
2016-07-08T08:23:01.737Z,1009.51
2016-07-08T08:24:01.743Z,1009.53
2016-07-08T08:25:01.745Z,1009.46
2016-07-08T08:26:01.744Z,1009.49
2016-07-08T08:27:01.952Z,1009.48
2016-07-08T08:28:01.751Z,1009.51
2016-07-08T08:29:01.753Z,1009.51
2016-07-08T08:30:01.753Z,1009.51
2016-07-08T08:31:01.755Z,1009.5
2016-07-08T08:32:01.755Z,1009.52
2016-07-08T08:33:01.761Z,1009.47
2016-07-08T08:34:01.760Z,1009.5
2016-07-08T08:35:01.762Z,1009.49
2016-07-08T08:36:01.762Z,1009.49
2016-07-08T08:37:01.766Z,1009.44
2016-07-08T08:38:01.766Z,1009.41
2016-07-08T08:39:01.770Z,1009.49
2016-07-08T08:40:01.767Z,1009.5
2016-07-08T08:41:01.774Z,1009.54
2016-07-08T08:42:01.777Z,1009.51
2016-07-08T08:43:01.781Z,1009.49
2016-07-08T08:44:01.784Z,1009.49
2016-07-08T08:45:01.782Z,1009.5
2016-07-08T08:46:01.781Z,1009.54
2016-07-08T08:47:01.793Z,1009.55
2016-07-08T08:48:01.787Z,1009.5
2016-07-08T08:49:01.788Z,1009.54
2016-07-08T08:50:01.794Z,1009.55
2016-07-08T08:51:01.793Z,1009.48
2016-07-08T08:52:01.796Z,1009.46
2016-07-08T08:53:01.795Z,1009.39
2016-07-08T08:54:01.799Z,1009.36
2016-07-08T08:55:01.803Z,1009.36
2016-07-08T08:56:01.803Z,1009.36
2016-07-08T08:57:01.807Z,1009.38
2016-07-08T08:58:01.806Z,1009.38
2016-07-08T08:59:01.811Z,1009.41
2016-07-08T09:00:01.812Z,1009.45
2016-07-08T09:01:01.824Z,1009.4
2016-07-08T09:02:01.816Z,1009.46
2016-07-08T09:03:01.818Z,1009.41
2016-07-08T09:04:01.821Z,1009.48
2016-07-08T09:05:01.823Z,1009.45
2016-07-08T09:06:01.834Z,1009.53
2016-07-08T09:07:01.838Z,1009.5
2016-07-08T09:08:01.837Z,1009.53
2016-07-08T09:09:02.062Z,1009.54
2016-07-08T09:10:01.836Z,1009.5
2016-07-08T09:11:01.835Z,1009.57
2016-07-08T09:12:01.853Z,1009.55
2016-07-08T09:13:01.842Z,1009.46
2016-07-08T09:14:01.844Z,1009.39
2016-07-08T09:15:01.842Z,1009.36
2016-07-08T09:16:02.048Z,1009.34
2016-07-08T09:17:01.851Z,1009.32
2016-07-08T09:18:01.855Z,1009.3
2016-07-08T09:19:01.856Z,1009.28
2016-07-08T09:20:01.916Z,1009.26
2016-07-08T09:21:01.862Z,1009.22
2016-07-08T09:22:01.863Z,1009.2
2016-07-08T09:23:01.888Z,1009.2
2016-07-08T09:24:02.882Z,1009.19
2016-07-08T09:25:01.869Z,1009.19
2016-07-08T09:26:01.876Z,1009.14
2016-07-08T09:27:01.876Z,1009.18
2016-07-08T09:28:01.879Z,1009.15
2016-07-08T09:29:01.878Z,1009.16
2016-07-08T09:30:01.937Z,1009.16
2016-07-08T09:31:02.084Z,1009.22
2016-07-08T09:32:01.883Z,1009.22
2016-07-08T09:33:01.967Z,1009.16
2016-07-08T09:34:01.890Z,1009.17
2016-07-08T09:35:02.095Z,1009.17
2016-07-08T09:36:01.896Z,1009.1
2016-07-08T09:37:01.897Z,1009.15
2016-07-08T09:38:01.899Z,1009.04
2016-07-08T09:39:01.904Z,1009.01
2016-07-08T09:40:01.907Z,1009.09
2016-07-08T09:41:01.907Z,1009.05
2016-07-08T09:42:01.907Z,1009.09
2016-07-08T09:43:02.112Z,1009.06
2016-07-08T09:44:01.927Z,1009.04
2016-07-08T09:45:01.915Z,1009.08
2016-07-08T09:46:01.916Z,1009.16
2016-07-08T09:47:01.919Z,1009.17
2016-07-08T09:48:01.923Z,1009.16
2016-07-08T09:49:01.926Z,1009.13
2016-07-08T09:50:01.925Z,1009.06
2016-07-08T09:51:01.926Z,1009.09
2016-07-08T09:52:02.168Z,1009.1
2016-07-08T09:53:01.936Z,1009.15
2016-07-08T09:54:01.940Z,1009.11
2016-07-08T09:55:01.938Z,1009.1
2016-07-08T09:56:01.946Z,1009.08
2016-07-08T09:57:02.145Z,1009.09
2016-07-08T09:58:01.947Z,1009.1
2016-07-08T09:59:01.948Z,1009.09
2016-07-08T10:00:01.948Z,1009.05
2016-07-08T10:01:01.955Z,1009.06
2016-07-08T10:02:01.959Z,1009.07
2016-07-08T10:03:01.961Z,1009.11
2016-07-08T10:04:02.398Z,1009.06
2016-07-08T10:05:01.981Z,1009.12
2016-07-08T10:06:01.968Z,1009.03
2016-07-08T10:07:01.971Z,1009.16
2016-07-08T10:08:01.974Z,1009.09
2016-07-08T10:09:01.973Z,1009.05
2016-07-08T10:10:01.979Z,1009.03
2016-07-08T10:11:01.992Z,1008.99
2016-07-08T10:12:02.001Z,1009.06
2016-07-08T10:13:01.986Z,1009.06
2016-07-08T10:14:01.991Z,1009.07
2016-07-08T10:15:02.359Z,1009.15
2016-07-08T10:16:01.991Z,1009.09
2016-07-08T10:17:02.004Z,1009.19
2016-07-08T10:18:02.198Z,1009.17
2016-07-08T10:19:02.001Z,1009.14
2016-07-08T10:20:02.006Z,1009.1
2016-07-08T10:21:02.089Z,1009.14
2016-07-08T10:22:02.011Z,1009.16
2016-07-08T10:23:02.216Z,1009.2
2016-07-08T10:24:02.014Z,1009.22
2016-07-08T10:25:02.375Z,1009.19
2016-07-08T10:26:02.019Z,1009.16
2016-07-08T10:27:02.024Z,1009.22
2016-07-08T10:28:02.029Z,1009.15
2016-07-08T10:29:02.028Z,1009.18
2016-07-08T10:30:02.491Z,1009.17
2016-07-08T10:31:02.032Z,1009.17
2016-07-08T10:32:02.036Z,1009.11
2016-07-08T10:33:02.041Z,1009.14
2016-07-08T10:34:02.039Z,1009.12
2016-07-08T10:35:02.043Z,1009.21
2016-07-08T10:36:02.244Z,1009.18
2016-07-08T10:37:02.049Z,1009.21
2016-07-08T10:38:02.053Z,1009.22
2016-07-08T10:39:02.055Z,1009.18
2016-07-08T10:40:02.059Z,1009.23
2016-07-08T10:41:02.056Z,1009.24
2016-07-08T10:42:02.063Z,1009.19
2016-07-08T10:43:02.066Z,1009.2
2016-07-08T10:44:02.067Z,1009.19
2016-07-08T10:45:02.072Z,1009.18
2016-07-08T10:46:02.072Z,1009.15
2016-07-08T10:47:02.078Z,1009.13
2016-07-08T10:48:02.083Z,1009.09
2016-07-08T10:49:02.084Z,1009.09
2016-07-08T10:50:02.091Z,1009.11
2016-07-08T10:51:02.090Z,1009.14
2016-07-08T10:52:02.095Z,1009.1
2016-07-08T10:53:02.094Z,1009.09
2016-07-08T10:54:02.099Z,1009.1
2016-07-08T10:55:02.101Z,1009.11
2016-07-08T10:56:02.110Z,1009.21
2016-07-08T10:57:02.110Z,1009.22
2016-07-08T10:58:02.111Z,1009.25
2016-07-08T10:59:02.117Z,1009.25
2016-07-08T11:00:02.116Z,1009.29
2016-07-08T11:01:02.124Z,1009.33
2016-07-08T11:02:02.125Z,1009.37
2016-07-08T11:03:02.140Z,1009.39
2016-07-08T11:04:02.133Z,1009.43
2016-07-08T11:05:02.185Z,1009.46
2016-07-08T11:06:02.142Z,1009.46
2016-07-08T11:07:02.141Z,1009.49
2016-07-08T11:08:02.146Z,1009.44
2016-07-08T11:09:02.149Z,1009.43
2016-07-08T11:10:02.152Z,1009.4
2016-07-08T11:11:02.157Z,1009.45
2016-07-08T11:12:02.156Z,1009.43
2016-07-08T11:13:02.202Z,1009.45
2016-07-08T11:14:02.167Z,1009.43
2016-07-08T11:15:02.168Z,1009.44
2016-07-08T11:16:02.173Z,1009.46
2016-07-08T11:17:02.175Z,1009.48
2016-07-08T11:18:02.181Z,1009.46
2016-07-08T11:19:02.382Z,1009.5
2016-07-08T11:20:02.183Z,1009.49
2016-07-08T11:21:02.187Z,1009.53
2016-07-08T11:22:02.193Z,1009.5
2016-07-08T11:23:02.194Z,1009.5
2016-07-08T11:24:02.198Z,1009.51
2016-07-08T11:25:02.202Z,1009.52
2016-07-08T11:26:02.204Z,1009.5
2016-07-08T11:27:02.208Z,1009.52
2016-07-08T11:28:02.282Z,1009.53
2016-07-08T11:29:02.268Z,1009.6
2016-07-08T11:30:02.217Z,1009.6
2016-07-08T11:31:02.218Z,1009.62
2016-07-08T11:32:02.225Z,1009.59
2016-07-08T11:33:02.506Z,1009.58
2016-07-08T11:34:02.749Z,1009.64
2016-07-08T11:35:02.235Z,1009.67
2016-07-08T11:36:02.235Z,1009.59
2016-07-08T11:37:02.237Z,1009.67
2016-07-08T11:38:02.240Z,1009.64
2016-07-08T11:39:02.240Z,1009.76
2016-07-08T11:40:02.248Z,1009.68
2016-07-08T11:41:02.250Z,1009.73
2016-07-08T11:42:02.722Z,1009.64
2016-07-08T11:43:02.256Z,1009.66
2016-07-08T11:44:02.259Z,1009.8
2016-07-08T11:45:02.265Z,1009.67
2016-07-08T11:46:02.265Z,1009.6
2016-07-08T11:47:02.330Z,1009.6
2016-07-08T11:48:02.316Z,1009.61
2016-07-08T11:49:02.297Z,1009.62
2016-07-08T11:50:02.279Z,1009.56
2016-07-08T11:51:02.281Z,1009.61
2016-07-08T11:52:02.284Z,1009.62
2016-07-08T11:53:02.287Z,1009.68
2016-07-08T11:54:02.288Z,1009.65
2016-07-08T11:55:02.293Z,1009.56
2016-07-08T11:56:02.299Z,1009.59
2016-07-08T11:57:02.298Z,1009.64
2016-07-08T11:58:02.388Z,1009.64
2016-07-08T11:59:02.304Z,1009.65
2016-07-08T12:00:02.307Z,1009.66
2016-07-08T12:01:02.313Z,1009.65
2016-07-08T12:02:02.316Z,1009.64
2016-07-08T12:03:02.315Z,1009.66
2016-07-08T12:04:02.320Z,1009.64
2016-07-08T12:05:02.497Z,1009.61
2016-07-08T12:06:02.327Z,1009.61
2016-07-08T12:07:02.330Z,1009.6
2016-07-08T12:08:02.330Z,1009.66
2016-07-08T12:09:02.335Z,1009.62
2016-07-08T12:10:02.337Z,1009.67
2016-07-08T12:11:02.339Z,1009.66
2016-07-08T12:12:02.343Z,1009.63
2016-07-08T12:13:02.348Z,1009.64
2016-07-08T12:14:02.345Z,1009.63
2016-07-08T12:15:02.355Z,1009.65
2016-07-08T12:16:02.359Z,1009.66
2016-07-08T12:17:02.360Z,1009.68
2016-07-08T12:18:02.361Z,1009.68
2016-07-08T12:19:02.364Z,1009.66
2016-07-08T12:20:02.372Z,1009.68
2016-07-08T12:21:02.420Z,1009.65
2016-07-08T12:22:02.377Z,1009.65
2016-07-08T12:23:02.377Z,1009.75
2016-07-08T12:24:02.383Z,1009.76
2016-07-08T12:25:02.387Z,1009.8
2016-07-08T12:26:02.392Z,1009.87
2016-07-08T12:27:02.394Z,1009.84
2016-07-08T12:28:02.397Z,1009.87
2016-07-08T12:29:02.399Z,1009.9
2016-07-08T12:30:02.400Z,1009.84
2016-07-08T12:31:02.413Z,1009.86
2016-07-08T12:32:02.409Z,1009.85
2016-07-08T12:33:02.412Z,1009.87
2016-07-08T12:34:02.417Z,1009.89
2016-07-08T12:35:02.427Z,1009.87
2016-07-08T12:36:02.471Z,1009.88
2016-07-08T12:37:02.430Z,1009.9
2016-07-08T12:38:02.428Z,1009.92
2016-07-08T12:39:02.433Z,1009.91
2016-07-08T12:40:02.438Z,1009.88
2016-07-08T12:41:02.441Z,1009.84
2016-07-08T12:42:02.448Z,1009.9
2016-07-08T12:43:02.445Z,1009.94
2016-07-08T12:44:02.454Z,1009.98
2016-07-08T12:45:02.456Z,1009.96
2016-07-08T12:46:02.459Z,1010.06
2016-07-08T12:47:02.464Z,1009.93
2016-07-08T12:48:02.467Z,1010.04
2016-07-08T12:49:02.474Z,1010.06
2016-07-08T12:50:02.473Z,1010.07
2016-07-08T12:51:02.505Z,1010.02
2016-07-08T12:52:02.500Z,1010.04
2016-07-08T12:53:02.487Z,1009.97
2016-07-08T12:54:02.690Z,1010.02
2016-07-08T12:55:02.493Z,1010.06
2016-07-08T12:56:02.496Z,1009.96
2016-07-08T12:57:02.501Z,1009.88
2016-07-08T12:58:02.503Z,1009.96
2016-07-08T12:59:02.503Z,1009.93
2016-07-08T13:00:02.512Z,1009.95
2016-07-08T13:01:02.512Z,1009.87
2016-07-08T13:02:02.520Z,1009.91
2016-07-08T13:03:02.522Z,1009.85
2016-07-08T13:04:02.527Z,1009.84
2016-07-08T13:05:02.533Z,1009.86
2016-07-08T13:06:02.535Z,1009.95
2016-07-08T13:07:02.735Z,1009.92
2016-07-08T13:08:02.537Z,1009.92
2016-07-08T13:09:02.541Z,1009.98
2016-07-08T13:10:02.551Z,1010
2016-07-08T13:11:02.547Z,1010.02
2016-07-08T13:12:02.553Z,1009.96
2016-07-08T13:13:02.559Z,1009.98
2016-07-08T13:14:02.560Z,1009.97
2016-07-08T13:15:02.563Z,1009.99
2016-07-08T13:16:02.563Z,1009.95
2016-07-08T13:17:02.578Z,1009.96
2016-07-08T13:18:02.573Z,1009.99
2016-07-08T13:19:02.577Z,1010
2016-07-08T13:20:02.579Z,1009.99
2016-07-08T13:21:02.632Z,1010.01
2016-07-08T13:22:02.588Z,1010.07
2016-07-08T13:23:02.589Z,1009.88
2016-07-08T13:24:02.796Z,1009.91
2016-07-08T13:25:02.601Z,1009.8
2016-07-08T13:26:02.630Z,1009.81
2016-07-08T13:27:02.626Z,1009.81
2016-07-08T13:28:02.630Z,1009.78
2016-07-08T13:29:02.634Z,1009.77
2016-07-08T13:30:02.637Z,1009.72
2016-07-08T13:31:02.619Z,1009.68
2016-07-08T13:32:02.622Z,1009.66
2016-07-08T13:33:02.622Z,1009.68
2016-07-08T13:34:02.628Z,1009.69
2016-07-08T13:35:02.630Z,1009.68
2016-07-08T13:36:02.635Z,1009.7
2016-07-08T13:37:02.642Z,1009.71
2016-07-08T13:38:02.641Z,1009.72
2016-07-08T13:39:02.645Z,1009.73
2016-07-08T13:40:02.851Z,1009.79
2016-07-08T13:41:02.650Z,1009.89
2016-07-08T13:42:02.655Z,1009.82
2016-07-08T13:43:02.661Z,1009.87
2016-07-08T13:44:02.663Z,1009.91
2016-07-08T13:45:02.666Z,1009.89
2016-07-08T13:46:02.669Z,1009.88
2016-07-08T13:47:02.673Z,1009.91
2016-07-08T13:48:02.674Z,1009.89
2016-07-08T13:49:02.679Z,1009.93
2016-07-08T13:50:02.683Z,1009.93
2016-07-08T13:51:02.686Z,1009.91
2016-07-08T13:52:02.891Z,1009.89
2016-07-08T13:53:02.694Z,1009.94
2016-07-08T13:54:02.696Z,1009.92
2016-07-08T13:55:02.718Z,1009.92
2016-07-08T13:56:02.701Z,1009.88
2016-07-08T13:57:02.718Z,1009.91
2016-07-08T13:58:02.711Z,1009.89
2016-07-08T13:59:02.713Z,1009.87
2016-07-08T14:00:02.716Z,1009.83
2016-07-08T14:01:02.720Z,1009.81
2016-07-08T14:02:02.724Z,1009.77
2016-07-08T14:03:02.727Z,1009.81
2016-07-08T14:05:39.245Z,1009.83
2016-07-08T14:06:39.247Z,1009.82
2016-07-08T14:07:39.249Z,1009.86
2016-07-08T14:08:39.254Z,1009.81
2016-07-08T14:09:39.257Z,1009.8
2016-07-08T14:10:39.257Z,1009.8
2016-07-08T14:11:39.259Z,1009.81
2016-07-08T14:12:39.263Z,1009.78
2016-07-08T14:13:39.264Z,1009.73
2016-07-08T14:14:39.271Z,1009.8
2016-07-08T14:15:39.272Z,1009.79
2016-07-08T14:16:39.275Z,1009.89
2016-07-08T14:17:39.277Z,1009.9
2016-07-08T14:18:39.282Z,1009.95
2016-07-08T14:19:39.283Z,1009.99
2016-07-08T14:20:39.286Z,1009.99
2016-07-08T14:21:39.288Z,1009.96
2016-07-08T14:22:39.295Z,1009.94
2016-07-08T14:23:39.293Z,1009.96
2016-07-08T14:24:39.298Z,1009.97
2016-07-08T14:25:39.301Z,1009.92
2016-07-08T14:26:39.304Z,1009.88
2016-07-08T14:27:39.306Z,1009.9
2016-07-08T14:28:39.310Z,1009.91
2016-07-08T14:29:39.317Z,1009.97
2016-07-08T14:30:39.319Z,1009.94
2016-07-08T14:31:39.319Z,1009.96
2016-07-08T14:32:39.326Z,1009.93
2016-07-08T14:33:39.324Z,1009.98
2016-07-08T14:34:39.328Z,1010.03
2016-07-08T14:35:39.333Z,1009.99
2016-07-08T14:36:39.332Z,1009.93
2016-07-08T14:37:39.342Z,1009.89
2016-07-08T14:38:39.340Z,1009.91
2016-07-08T14:39:39.344Z,1009.89
2016-07-08T14:40:39.347Z,1009.84
2016-07-08T14:41:39.352Z,1009.9
2016-07-08T14:42:39.350Z,1009.88
2016-07-08T14:43:39.359Z,1009.9
2016-07-08T14:44:39.360Z,1009.88
2016-07-08T14:45:39.361Z,1009.94
2016-07-08T14:46:39.364Z,1009.89
2016-07-08T14:47:39.371Z,1009.77
2016-07-08T14:48:39.574Z,1009.78
2016-07-08T14:49:39.375Z,1009.79
2016-07-08T14:50:39.377Z,1009.81
2016-07-08T14:51:39.383Z,1009.76
2016-07-08T14:52:39.384Z,1009.88
2016-07-08T14:53:39.388Z,1009.88
2016-07-08T14:54:39.393Z,1009.88
2016-07-08T14:55:39.395Z,1009.98
2016-07-08T14:56:39.399Z,1010.01
2016-07-08T14:57:39.401Z,1009.97
2016-07-08T14:58:39.607Z,1009.96
2016-07-08T14:59:39.410Z,1010.05
2016-07-08T15:00:39.412Z,1009.96
2016-07-08T15:01:39.413Z,1009.94
2016-07-08T15:02:39.418Z,1009.96
2016-07-08T15:03:39.421Z,1010.03
2016-07-08T15:04:39.423Z,1010.02
2016-07-08T15:05:39.425Z,1010.05
2016-07-08T15:06:39.432Z,1009.97
2016-07-08T15:07:39.434Z,1009.96
2016-07-08T15:08:39.436Z,1009.93
2016-07-08T15:09:39.440Z,1009.95
2016-07-08T15:10:39.443Z,1009.98
2016-07-08T15:11:39.445Z,1009.94
2016-07-08T15:12:39.450Z,1009.89
2016-07-08T15:13:39.651Z,1009.96
2016-07-08T15:14:39.455Z,1009.9
2016-07-08T15:15:39.457Z,1009.93
2016-07-08T15:16:39.461Z,1009.96
2016-07-08T15:17:39.468Z,1009.95
2016-07-08T15:18:39.466Z,1009.99
2016-07-08T15:19:39.467Z,1009.96
2016-07-08T15:20:39.475Z,1009.95
2016-07-08T15:21:39.523Z,1009.99
2016-07-08T15:22:39.477Z,1010.01
2016-07-08T15:23:39.483Z,1010
2016-07-08T15:24:39.486Z,1010.01
2016-07-08T15:25:39.488Z,1010.03
2016-07-08T15:26:39.491Z,1010.04
2016-07-08T15:27:39.494Z,1010.08
2016-07-08T15:28:39.497Z,1010.05
2016-07-08T15:29:39.498Z,1010.07
2016-07-08T15:30:39.507Z,1010.02
2016-07-08T15:31:39.505Z,1010.04
2016-07-08T15:32:39.509Z,1010.01
2016-07-08T15:33:39.514Z,1010.02
2016-07-08T15:34:39.515Z,1009.97
2016-07-08T15:35:39.519Z,1009.98
2016-07-08T15:36:39.520Z,1010
2016-07-08T15:37:39.525Z,1010.02
2016-07-08T15:38:39.729Z,1010.02
2016-07-08T15:39:39.532Z,1010.1
2016-07-08T15:40:39.533Z,1010.22
2016-07-08T15:41:39.739Z,1010.07
2016-07-08T15:42:39.539Z,1010.02
2016-07-08T15:43:39.543Z,1010.07
2016-07-08T15:44:39.550Z,1010.01
2016-07-08T15:45:39.551Z,1010.1
2016-07-08T15:46:39.554Z,1010.16
2016-07-08T15:47:39.554Z,1010.12
2016-07-08T15:48:39.761Z,1010.18
2016-07-08T15:49:39.558Z,1010.15
2016-07-08T15:50:39.563Z,1010.21
2016-07-08T15:51:39.569Z,1010.18
2016-07-08T15:52:39.571Z,1010.19
2016-07-08T15:53:39.574Z,1010.21
2016-07-08T15:54:39.575Z,1010.1
2016-07-08T15:55:39.579Z,1010.18
2016-07-08T15:56:39.581Z,1010.17
2016-07-08T15:57:39.585Z,1010.11
2016-07-08T15:58:39.585Z,1010.17
2016-07-08T15:59:39.587Z,1010.18
2016-07-08T16:00:39.591Z,1010.17
2016-07-08T16:01:39.596Z,1010.17
2016-07-08T16:02:39.597Z,1010.21
2016-07-08T16:03:39.599Z,1010.24
2016-07-08T16:04:39.603Z,1010.24
2016-07-08T16:05:39.607Z,1010.24
2016-07-08T16:06:39.609Z,1010.24
2016-07-08T16:07:39.613Z,1010.28
2016-07-08T16:08:39.615Z,1010.3
2016-07-08T16:09:39.618Z,1010.32
2016-07-08T16:10:39.620Z,1010.35
2016-07-08T16:11:39.624Z,1010.37
2016-07-08T16:12:39.626Z,1010.37
2016-07-08T16:13:39.628Z,1010.37
2016-07-08T16:14:39.630Z,1010.4
2016-07-08T16:15:39.634Z,1010.4
2016-07-08T16:16:39.635Z,1010.42
2016-07-08T16:17:39.638Z,1010.41
2016-07-08T16:18:39.845Z,1010.45
2016-07-08T16:19:39.646Z,1010.44
2016-07-08T16:20:39.648Z,1010.49
2016-07-08T16:21:39.653Z,1010.49
2016-07-08T16:22:39.654Z,1010.56
2016-07-08T16:23:39.654Z,1010.52
2016-07-08T16:24:39.661Z,1010.45
2016-07-08T16:25:39.662Z,1010.49
2016-07-08T16:26:39.664Z,1010.5
2016-07-08T16:27:39.669Z,1010.49
2016-07-08T16:28:39.672Z,1010.53
2016-07-08T16:29:39.675Z,1010.54
2016-07-08T16:30:39.679Z,1010.54
2016-07-08T16:31:39.680Z,1010.54
2016-07-08T16:32:39.683Z,1010.5
2016-07-08T16:33:39.687Z,1010.53
2016-07-08T16:34:39.687Z,1010.51
2016-07-08T16:35:39.694Z,1010.55
2016-07-08T16:36:39.696Z,1010.54
2016-07-08T16:37:39.698Z,1010.57
2016-07-08T16:38:39.699Z,1010.63
2016-07-08T16:39:39.700Z,1010.56
2016-07-08T16:40:39.705Z,1010.65
2016-07-08T16:41:39.708Z,1010.57
2016-07-08T16:42:39.714Z,1010.59
2016-07-08T16:43:39.713Z,1010.61
2016-07-08T16:44:39.718Z,1010.55
2016-07-08T16:45:39.720Z,1010.59
2016-07-08T16:46:39.720Z,1010.56
2016-07-08T16:47:39.726Z,1010.55
2016-07-08T16:48:39.728Z,1010.58
2016-07-08T16:49:39.732Z,1010.59
2016-07-08T16:50:39.735Z,1010.61
2016-07-08T16:51:39.737Z,1010.57
2016-07-08T16:52:39.741Z,1010.64
2016-07-08T16:53:39.743Z,1010.61
2016-07-08T16:54:39.746Z,1010.6
2016-07-08T16:55:39.749Z,1010.52
2016-07-08T16:56:39.750Z,1010.52
2016-07-08T16:57:39.753Z,1010.51
2016-07-08T16:58:39.757Z,1010.47
2016-07-08T16:59:39.761Z,1010.48
2016-07-08T17:00:39.764Z,1010.54
2016-07-08T17:01:39.765Z,1010.52
2016-07-08T17:02:39.768Z,1010.55
2016-07-08T17:03:39.972Z,1010.59
2016-07-08T17:04:39.776Z,1010.63
2016-07-08T17:05:39.778Z,1010.62
2016-07-08T17:06:39.783Z,1010.59
2016-07-08T17:07:39.783Z,1010.66
2016-07-08T17:08:39.789Z,1010.65
2016-07-08T17:09:39.791Z,1010.72
2016-07-08T17:10:39.794Z,1010.7
2016-07-08T17:11:39.797Z,1010.63
2016-07-08T17:12:40.002Z,1010.72
2016-07-08T17:13:39.801Z,1010.73
2016-07-08T17:14:39.807Z,1010.73
2016-07-08T17:15:39.809Z,1010.74
2016-07-08T17:16:39.809Z,1010.89
2016-07-08T17:17:39.820Z,1010.76
2016-07-08T17:18:40.019Z,1010.77
2016-07-08T17:19:39.820Z,1010.83
2016-07-08T17:20:39.825Z,1010.86
2016-07-08T17:21:39.840Z,1010.86
2016-07-08T17:22:39.829Z,1010.92
2016-07-08T17:23:39.833Z,1010.84
2016-07-08T17:24:39.837Z,1010.89
2016-07-08T17:25:39.837Z,1010.88
2016-07-08T17:26:39.839Z,1010.91
2016-07-08T17:27:39.840Z,1010.91
2016-07-08T17:28:39.848Z,1010.91
2016-07-08T17:29:39.844Z,1010.87
2016-07-08T17:30:39.850Z,1010.93
2016-07-08T17:31:39.852Z,1010.92
2016-07-08T17:32:39.860Z,1010.95
2016-07-08T17:33:39.859Z,1010.96
2016-07-08T17:34:39.863Z,1010.97
2016-07-08T17:35:39.865Z,1010.96
2016-07-08T17:36:40.071Z,1010.98
2016-07-08T17:37:39.870Z,1010.99
2016-07-08T17:38:39.871Z,1010.98
2016-07-08T17:39:39.876Z,1011
2016-07-08T17:40:39.876Z,1010.99
2016-07-08T17:41:39.882Z,1011.02
2016-07-08T17:42:39.884Z,1010.98
2016-07-08T17:43:39.887Z,1011.04
2016-07-08T17:44:39.891Z,1010.97
2016-07-08T17:45:39.894Z,1011.05
2016-07-08T17:46:39.895Z,1010.99
2016-07-08T17:47:39.897Z,1011.04
2016-07-08T17:48:39.900Z,1010.97
2016-07-08T17:49:39.902Z,1010.98
2016-07-08T17:50:39.906Z,1011
2016-07-08T17:51:39.909Z,1011.03
2016-07-08T17:52:39.912Z,1010.99
2016-07-08T17:53:39.918Z,1011.04
2016-07-08T17:54:39.917Z,1011.05
2016-07-08T17:55:39.919Z,1011.01
2016-07-08T17:56:39.923Z,1011.06
2016-07-08T17:57:39.924Z,1011.01
2016-07-08T17:58:39.926Z,1011.01
2016-07-08T17:59:39.930Z,1011.01
2016-07-08T18:00:39.935Z,1011.02
2016-07-08T18:01:39.937Z,1011.01
2016-07-08T18:02:39.938Z,1011.01
2016-07-08T18:03:39.940Z,1011.04
2016-07-08T18:04:39.943Z,1011.05
2016-07-08T18:05:39.947Z,1011.01
2016-07-08T18:06:39.949Z,1011.07
2016-07-08T18:07:39.951Z,1011.05
2016-07-08T18:08:39.956Z,1011.03
2016-07-08T18:09:39.956Z,1011
2016-07-08T18:10:39.959Z,1011.02
2016-07-08T18:11:39.963Z,1010.96
2016-07-08T18:12:39.964Z,1010.95
2016-07-08T18:13:39.966Z,1010.91
2016-07-08T18:14:39.972Z,1010.98